SBOSBO CRK / RPLC
Speedbird OnlineSpeedbird Online CRK / RPLC

Diosdado Macapagal International Airport
07:23 26°C

Location Angeles City, Philippines
Latitude: 15.186
Longitude: 120.559998
Local Time 07:23 on 22 Jun 2024
UTC +8 hours (Asia/Manila)
Currency £1 equals PHP 74.41
METAR RPLC 212300Z 18006KT 7000 SCT018 BKN100 26/25 Q1010 RETS RERASH RMK A2983
TAF TAF RPLC 211700Z 2118/2224 18006KT 9999 SCT020 BKN300 TX33/2206Z TN25/2121Z TEMPO 2118/2124 27006KT FEW020 BKN100
Weather As Of 22 Jun 2024 07:23
Description Broken clouds
Wind 11 km/h from South (180°)
Cloud Cover 75%
Precipitation Rain: none, Snow: none
Sunrise 05:28
Sunset 18:30
Rotations During the last 90 days there were
1 flights from MNL
1 flights from SIN
1 flights to SIN
1 flights to MNL
Lounges PAGSS Premium Lounge, International Departure
Web Airport Website | Wikipedia
Codes IATA: CRK
ICAO: RPLC
Altitude 148 Meter / 484 Feet
Distance 10,641 KM / 6,612 Miles
from London.
Runways
RunwayLength (m)Surface
02L3200Concrete
02R3200Concrete
20L3200Concrete
20R3200Concrete
Radio
TypeDescriptionFrequency
A/DAPP119.2
ATISATIS127.2
CLDCLNC DEL125.2
FSSRDO544.75
TWRTWR118.7
Live ATC



Support Speedbird Online

© 2017-2024 Speedbird Online